sensor_id;sensor_type;location;lat;lon;timestamp;P1;durP1;ratioP1;P2;durP2;ratioP2
9248;SDS011;4660;41.768;26.198;2023-08-12T00:00:27;3.92;;;2.80;;
9248;SDS011;4660;41.768;26.198;2023-08-12T00:02:53;3.10;;;2.80;;
9248;SDS011;4660;41.768;26.198;2023-08-12T00:05:18;3.35;;;3.05;;
9248;SDS011;4660;41.768;26.198;2023-08-12T00:07:43;3.53;;;3.00;;
9248;SDS011;4660;41.768;26.198;2023-08-12T00:10:10;2.90;;;2.60;;
9248;SDS011;4660;41.768;26.198;2023-08-12T00:12:37;3.25;;;2.95;;
9248;SDS011;4660;41.768;26.198;2023-08-12T00:15:03;3.30;;;3.10;;
9248;SDS011;4660;41.768;26.198;2023-08-12T00:17:31;3.30;;;3.00;;
9248;SDS011;4660;41.768;26.198;2023-08-12T00:19:57;5.20;;;3.03;;
9248;SDS011;4660;41.768;26.198;2023-08-12T00:22:23;5.20;;;3.40;;
9248;SDS011;4660;41.768;26.198;2023-08-12T00:24:48;3.30;;;3.00;;
9248;SDS011;4660;41.768;26.198;2023-08-12T00:27:14;2.97;;;2.70;;
9248;SDS011;4660;41.768;26.198;2023-08-12T00:29:39;3.25;;;2.90;;
9248;SDS011;4660;41.768;26.198;2023-08-12T00:32:05;4.47;;;2.80;;
9248;SDS011;4660;41.768;26.198;2023-08-12T00:34:31;3.47;;;3.17;;
9248;SDS011;4660;41.768;26.198;2023-08-12T00:36:56;3.30;;;3.00;;
9248;SDS011;4660;41.768;26.198;2023-08-12T00:39:22;3.38;;;3.05;;
9248;SDS011;4660;41.768;26.198;2023-08-12T00:41:48;3.85;;;3.05;;
9248;SDS011;4660;41.768;26.198;2023-08-12T00:44:13;4.70;;;3.33;;
9248;SDS011;4660;41.768;26.198;2023-08-12T00:46:39;3.42;;;3.13;;
9248;SDS011;4660;41.768;26.198;2023-08-12T00:49:06;4.18;;;2.75;;
9248;SDS011;4660;41.768;26.198;2023-08-12T00:51:32;3.92;;;3.40;;
9248;SDS011;4660;41.768;26.198;2023-08-12T00:53:58;4.03;;;3.10;;
9248;SDS011;4660;41.768;26.198;2023-08-12T00:56:25;3.63;;;3.08;;
9248;SDS011;4660;41.768;26.198;2023-08-12T00:58:52;3.08;;;2.88;;
9248;SDS011;4660;41.768;26.198;2023-08-12T01:01:18;4.93;;;3.47;;
9248;SDS011;4660;41.768;26.198;2023-08-12T01:03:45;3.53;;;3.22;;
9248;SDS011;4660;41.768;26.198;2023-08-12T01:06:11;4.68;;;3.60;;
9248;SDS011;4660;41.768;26.198;2023-08-12T01:08:37;3.72;;;3.42;;
9248;SDS011;4660;41.768;26.198;2023-08-12T01:16:21;5.67;;;3.20;;
9248;SDS011;4660;41.768;26.198;2023-08-12T01:18:48;4.22;;;3.75;;
9248;SDS011;4660;41.768;26.198;2023-08-12T01:21:16;3.20;;;3.00;;
9248;SDS011;4660;41.768;26.198;2023-08-12T01:23:42;6.40;;;3.40;;
9248;SDS011;4660;41.768;26.198;2023-08-12T01:26:09;3.95;;;3.45;;
9248;SDS011;4660;41.768;26.198;2023-08-12T01:28:35;4.72;;;3.85;;
9248;SDS011;4660;41.768;26.198;2023-08-12T01:31:15;4.55;;;3.50;;
9248;SDS011;4660;41.768;26.198;2023-08-12T01:33:49;5.47;;;2.97;;
9248;SDS011;4660;41.768;26.198;2023-08-12T01:36:21;4.95;;;3.78;;
9248;SDS011;4660;41.768;26.198;2023-08-12T01:38:50;4.50;;;3.60;;
9248;SDS011;4660;41.768;26.198;2023-08-12T01:41:19;3.90;;;3.60;;
9248;SDS011;4660;41.768;26.198;2023-08-12T01:43:47;4.35;;;3.95;;
9248;SDS011;4660;41.768;26.198;2023-08-12T01:46:13;5.60;;;3.83;;
9248;SDS011;4660;41.768;26.198;2023-08-12T01:48:39;3.75;;;3.45;;
9248;SDS011;4660;41.768;26.198;2023-08-12T01:51:04;4.13;;;3.40;;
9248;SDS011;4660;41.768;26.198;2023-08-12T01:53:30;5.93;;;3.75;;
9248;SDS011;4660;41.768;26.198;2023-08-12T01:55:56;3.73;;;3.40;;
9248;SDS011;4660;41.768;26.198;2023-08-12T01:58:21;5.07;;;4.20;;
9248;SDS011;4660;41.768;26.198;2023-08-12T02:00:46;3.38;;;3.08;;
9248;SDS011;4660;41.768;26.198;2023-08-12T02:03:12;4.90;;;3.63;;
9248;SDS011;4660;41.768;26.198;2023-08-12T02:05:38;6.78;;;4.20;;
9248;SDS011;4660;41.768;26.198;2023-08-12T02:08:04;4.53;;;4.13;;
9248;SDS011;4660;41.768;26.198;2023-08-12T02:10:30;4.32;;;3.80;;
9248;SDS011;4660;41.768;26.198;2023-08-12T02:12:55;4.30;;;3.87;;
9248;SDS011;4660;41.768;26.198;2023-08-12T02:15:21;4.40;;;4.00;;
9248;SDS011;4660;41.768;26.198;2023-08-12T02:17:46;4.88;;;3.85;;
9248;SDS011;4660;41.768;26.198;2023-08-12T02:20:12;6.30;;;4.57;;
9248;SDS011;4660;41.768;26.198;2023-08-12T02:22:37;6.10;;;4.07;;
9248;SDS011;4660;41.768;26.198;2023-08-12T02:25:03;5.50;;;3.80;;
9248;SDS011;4660;41.768;26.198;2023-08-12T02:27:29;5.83;;;4.03;;
9248;SDS011;4660;41.768;26.198;2023-08-12T02:29:54;5.38;;;3.60;;
9248;SDS011;4660;41.768;26.198;2023-08-12T02:32:20;5.00;;;3.95;;
9248;SDS011;4660;41.768;26.198;2023-08-12T02:34:45;6.07;;;3.58;;
9248;SDS011;4660;41.768;26.198;2023-08-12T02:37:10;6.78;;;3.80;;
9248;SDS011;4660;41.768;26.198;2023-08-12T02:39:38;4.88;;;3.58;;
9248;SDS011;4660;41.768;26.198;2023-08-12T02:42:03;3.70;;;3.40;;
9248;SDS011;4660;41.768;26.198;2023-08-12T02:44:29;5.90;;;4.25;;
9248;SDS011;4660;41.768;26.198;2023-08-12T02:46:54;3.95;;;3.53;;
9248;SDS011;4660;41.768;26.198;2023-08-12T02:49:20;4.00;;;3.58;;
9248;SDS011;4660;41.768;26.198;2023-08-12T02:51:46;3.55;;;3.25;;
9248;SDS011;4660;41.768;26.198;2023-08-12T02:54:11;5.43;;;4.20;;
9248;SDS011;4660;41.768;26.198;2023-08-12T02:56:37;4.13;;;3.78;;
9248;SDS011;4660;41.768;26.198;2023-08-12T02:59:02;4.07;;;3.28;;
9248;SDS011;4660;41.768;26.198;2023-08-12T03:01:28;6.05;;;3.55;;
9248;SDS011;4660;41.768;26.198;2023-08-12T03:03:54;4.85;;;4.00;;
9248;SDS011;4660;41.768;26.198;2023-08-12T03:06:19;5.63;;;3.85;;
9248;SDS011;4660;41.768;26.198;2023-08-12T03:08:45;4.63;;;4.22;;
9248;SDS011;4660;41.768;26.198;2023-08-12T03:11:11;5.82;;;3.90;;
9248;SDS011;4660;41.768;26.198;2023-08-12T03:13:36;4.70;;;4.20;;
9248;SDS011;4660;41.768;26.198;2023-08-12T03:16:02;6.57;;;4.13;;
9248;SDS011;4660;41.768;26.198;2023-08-12T03:18:27;6.17;;;3.90;;
9248;SDS011;4660;41.768;26.198;2023-08-12T03:20:53;4.72;;;4.32;;
9248;SDS011;4660;41.768;26.198;2023-08-12T03:23:18;4.90;;;4.20;;
9248;SDS011;4660;41.768;26.198;2023-08-12T03:25:44;6.85;;;3.80;;
9248;SDS011;4660;41.768;26.198;2023-08-12T03:28:12;4.60;;;3.83;;
9248;SDS011;4660;41.768;26.198;2023-08-12T03:30:37;4.65;;;4.25;;
9248;SDS011;4660;41.768;26.198;2023-08-12T03:33:03;4.03;;;3.72;;
9248;SDS011;4660;41.768;26.198;2023-08-12T03:35:29;4.82;;;4.30;;
9248;SDS011;4660;41.768;26.198;2023-08-12T03:37:54;5.05;;;3.67;;
9248;SDS011;4660;41.768;26.198;2023-08-12T03:40:20;4.60;;;4.20;;
9248;SDS011;4660;41.768;26.198;2023-08-12T03:42:45;5.63;;;4.60;;
9248;SDS011;4660;41.768;26.198;2023-08-12T03:45:11;4.77;;;4.27;;
9248;SDS011;4660;41.768;26.198;2023-08-12T03:47:36;5.82;;;4.20;;
9248;SDS011;4660;41.768;26.198;2023-08-12T03:50:02;4.90;;;4.43;;
9248;SDS011;4660;41.768;26.198;2023-08-12T03:52:28;4.57;;;4.18;;
9248;SDS011;4660;41.768;26.198;2023-08-12T03:54:53;6.68;;;4.53;;
9248;SDS011;4660;41.768;26.198;2023-08-12T03:57:19;6.22;;;4.80;;
9248;SDS011;4660;41.768;26.198;2023-08-12T03:59:44;5.63;;;4.68;;
9248;SDS011;4660;41.768;26.198;2023-08-12T04:02:10;7.00;;;4.70;;
9248;SDS011;4660;41.768;26.198;2023-08-12T04:04:35;6.07;;;4.20;;
9248;SDS011;4660;41.768;26.198;2023-08-12T04:07:01;5.97;;;4.35;;
9248;SDS011;4660;41.768;26.198;2023-08-12T04:09:26;5.17;;;4.37;;
9248;SDS011;4660;41.768;26.198;2023-08-12T04:11:52;5.93;;;4.37;;
9248;SDS011;4660;41.768;26.198;2023-08-12T04:14:17;8.40;;;4.90;;
9248;SDS011;4660;41.768;26.198;2023-08-12T04:16:43;5.07;;;4.57;;
9248;SDS011;4660;41.768;26.198;2023-08-12T04:19:08;5.47;;;4.97;;
9248;SDS011;4660;41.768;26.198;2023-08-12T04:21:34;5.32;;;4.72;;
9248;SDS011;4660;41.768;26.198;2023-08-12T04:23:59;9.25;;;5.00;;
9248;SDS011;4660;41.768;26.198;2023-08-12T04:26:25;8.63;;;4.95;;
9248;SDS011;4660;41.768;26.198;2023-08-12T04:28:51;9.48;;;4.57;;
9248;SDS011;4660;41.768;26.198;2023-08-12T04:31:16;6.00;;;4.40;;
9248;SDS011;4660;41.768;26.198;2023-08-12T04:33:42;5.65;;;4.78;;
9248;SDS011;4660;41.768;26.198;2023-08-12T04:36:07;6.93;;;4.57;;
9248;SDS011;4660;41.768;26.198;2023-08-12T04:38:33;5.43;;;4.93;;
9248;SDS011;4660;41.768;26.198;2023-08-12T04:40:58;5.90;;;4.55;;
9248;SDS011;4660;41.768;26.198;2023-08-12T04:43:24;5.00;;;4.45;;
9248;SDS011;4660;41.768;26.198;2023-08-12T04:45:49;5.55;;;4.40;;
9248;SDS011;4660;41.768;26.198;2023-08-12T04:48:15;5.75;;;3.97;;
9248;SDS011;4660;41.768;26.198;2023-08-12T04:50:41;4.95;;;3.80;;
9248;SDS011;4660;41.768;26.198;2023-08-12T04:53:07;4.82;;;4.30;;
9248;SDS011;4660;41.768;26.198;2023-08-12T04:55:34;6.57;;;4.05;;
9248;SDS011;4660;41.768;26.198;2023-08-12T04:58:00;6.40;;;4.60;;
9248;SDS011;4660;41.768;26.198;2023-08-12T05:00:27;5.28;;;3.95;;
9248;SDS011;4660;41.768;26.198;2023-08-12T05:02:53;7.38;;;4.57;;
9248;SDS011;4660;41.768;26.198;2023-08-12T05:05:19;4.30;;;3.83;;
9248;SDS011;4660;41.768;26.198;2023-08-12T05:07:45;3.83;;;3.47;;
9248;SDS011;4660;41.768;26.198;2023-08-12T05:10:15;4.47;;;4.07;;
9248;SDS011;4660;41.768;26.198;2023-08-12T05:12:41;4.30;;;3.90;;
9248;SDS011;4660;41.768;26.198;2023-08-12T05:15:08;4.50;;;4.10;;
9248;SDS011;4660;41.768;26.198;2023-08-12T05:17:33;7.28;;;4.45;;
9248;SDS011;4660;41.768;26.198;2023-08-12T05:19:59;5.07;;;3.83;;
9248;SDS011;4660;41.768;26.198;2023-08-12T05:22:24;3.67;;;3.30;;
9248;SDS011;4660;41.768;26.198;2023-08-12T05:24:50;4.07;;;3.60;;
9248;SDS011;4660;41.768;26.198;2023-08-12T05:27:15;3.50;;;3.20;;
9248;SDS011;4660;41.768;26.198;2023-08-12T05:29:41;5.28;;;3.72;;
9248;SDS011;4660;41.768;26.198;2023-08-12T05:32:06;4.63;;;3.78;;
9248;SDS011;4660;41.768;26.198;2023-08-12T05:34:32;5.60;;;3.53;;
9248;SDS011;4660;41.768;26.198;2023-08-12T05:36:57;3.33;;;3.08;;
9248;SDS011;4660;41.768;26.198;2023-08-12T05:39:23;2.83;;;2.63;;
9248;SDS011;4660;41.768;26.198;2023-08-12T05:41:48;3.63;;;3.28;;
9248;SDS011;4660;41.768;26.198;2023-08-12T05:44:14;3.67;;;3.22;;
9248;SDS011;4660;41.768;26.198;2023-08-12T05:46:40;3.20;;;2.90;;
9248;SDS011;4660;41.768;26.198;2023-08-12T05:49:05;3.42;;;2.97;;
9248;SDS011;4660;41.768;26.198;2023-08-12T05:51:31;5.30;;;3.17;;
9248;SDS011;4660;41.768;26.198;2023-08-12T05:53:57;3.90;;;3.50;;
9248;SDS011;4660;41.768;26.198;2023-08-12T05:56:22;2.90;;;2.70;;
9248;SDS011;4660;41.768;26.198;2023-08-12T05:58:48;2.92;;;2.65;;
9248;SDS011;4660;41.768;26.198;2023-08-12T06:01:13;3.17;;;2.67;;
9248;SDS011;4660;41.768;26.198;2023-08-12T06:03:39;3.17;;;2.88;;
9248;SDS011;4660;41.768;26.198;2023-08-12T06:06:04;3.83;;;2.88;;
9248;SDS011;4660;41.768;26.198;2023-08-12T06:08:30;2.75;;;2.55;;
9248;SDS011;4660;41.768;26.198;2023-08-12T06:10:56;2.50;;;2.30;;
9248;SDS011;4660;41.768;26.198;2023-08-12T06:13:21;2.85;;;2.65;;
9248;SDS011;4660;41.768;26.198;2023-08-12T06:15:47;4.03;;;3.20;;
9248;SDS011;4660;41.768;26.198;2023-08-12T06:18:12;3.67;;;2.70;;
9248;SDS011;4660;41.768;26.198;2023-08-12T06:20:38;4.30;;;2.58;;
9248;SDS011;4660;41.768;26.198;2023-08-12T06:23:03;3.00;;;2.80;;
9248;SDS011;4660;41.768;26.198;2023-08-12T06:25:29;2.72;;;2.45;;
9248;SDS011;4660;41.768;26.198;2023-08-12T06:27:54;3.70;;;2.50;;
9248;SDS011;4660;41.768;26.198;2023-08-12T06:30:20;6.55;;;2.38;;
9248;SDS011;4660;41.768;26.198;2023-08-12T06:32:45;4.32;;;2.22;;
9248;SDS011;4660;41.768;26.198;2023-08-12T06:35:11;2.70;;;2.50;;
9248;SDS011;4660;41.768;26.198;2023-08-12T06:37:36;3.00;;;2.70;;
9248;SDS011;4660;41.768;26.198;2023-08-12T06:40:02;2.95;;;2.47;;
9248;SDS011;4660;41.768;26.198;2023-08-12T06:42:28;2.90;;;2.63;;
9248;SDS011;4660;41.768;26.198;2023-08-12T06:44:58;3.22;;;2.85;;
9248;SDS011;4660;41.768;26.198;2023-08-12T06:47:24;4.50;;;2.72;;
9248;SDS011;4660;41.768;26.198;2023-08-12T06:49:51;2.60;;;2.40;;
9248;SDS011;4660;41.768;26.198;2023-08-12T06:52:16;3.70;;;2.20;;
9248;SDS011;4660;41.768;26.198;2023-08-12T06:54:42;4.85;;;2.60;;
9248;SDS011;4660;41.768;26.198;2023-08-12T06:57:07;4.25;;;2.40;;
9248;SDS011;4660;41.768;26.198;2023-08-12T06:59:33;4.13;;;3.28;;
9248;SDS011;4660;41.768;26.198;2023-08-12T07:01:59;2.95;;;2.65;;
9248;SDS011;4660;41.768;26.198;2023-08-12T07:04:24;3.05;;;2.75;;
9248;SDS011;4660;41.768;26.198;2023-08-12T07:06:50;4.20;;;2.35;;
9248;SDS011;4660;41.768;26.198;2023-08-12T07:09:15;3.60;;;2.88;;
9248;SDS011;4660;41.768;26.198;2023-08-12T07:11:41;8.32;;;2.65;;
9248;SDS011;4660;41.768;26.198;2023-08-12T07:14:06;3.22;;;2.20;;
9248;SDS011;4660;41.768;26.198;2023-08-12T07:16:33;2.45;;;2.25;;
9248;SDS011;4660;41.768;26.198;2023-08-12T07:18:58;2.60;;;2.40;;
9248;SDS011;4660;41.768;26.198;2023-08-12T07:21:24;3.85;;;2.42;;
9248;SDS011;4660;41.768;26.198;2023-08-12T07:23:49;3.00;;;2.22;;
9248;SDS011;4660;41.768;26.198;2023-08-12T07:26:15;3.20;;;2.90;;
9248;SDS011;4660;41.768;26.198;2023-08-12T07:28:41;2.13;;;2.03;;
9248;SDS011;4660;41.768;26.198;2023-08-12T07:31:06;3.58;;;2.28;;
9248;SDS011;4660;41.768;26.198;2023-08-12T07:33:32;3.65;;;2.40;;
9248;SDS011;4660;41.768;26.198;2023-08-12T07:35:57;2.97;;;2.47;;
9248;SDS011;4660;41.768;26.198;2023-08-12T07:38:23;2.75;;;2.22;;
9248;SDS011;4660;41.768;26.198;2023-08-12T07:40:49;2.55;;;2.35;;
9248;SDS011;4660;41.768;26.198;2023-08-12T07:43:15;4.45;;;3.00;;
9248;SDS011;4660;41.768;26.198;2023-08-12T07:45:40;2.78;;;2.45;;
9248;SDS011;4660;41.768;26.198;2023-08-12T07:48:06;5.18;;;2.65;;
9248;SDS011;4660;41.768;26.198;2023-08-12T07:50:31;3.08;;;2.80;;
9248;SDS011;4660;41.768;26.198;2023-08-12T07:53:02;2.60;;;2.40;;
9248;SDS011;4660;41.768;26.198;2023-08-12T07:55:28;6.95;;;2.80;;
9248;SDS011;4660;41.768;26.198;2023-08-12T07:57:54;3.55;;;2.42;;
9248;SDS011;4660;41.768;26.198;2023-08-12T08:00:20;2.90;;;2.60;;
9248;SDS011;4660;41.768;26.198;2023-08-12T08:02:45;6.93;;;2.28;;
9248;SDS011;4660;41.768;26.198;2023-08-12T08:05:11;6.18;;;2.22;;
9248;SDS011;4660;41.768;26.198;2023-08-12T08:07:37;3.00;;;2.70;;
9248;SDS011;4660;41.768;26.198;2023-08-12T08:10:02;3.60;;;2.78;;
9248;SDS011;4660;41.768;26.198;2023-08-12T08:12:28;4.88;;;2.50;;
9248;SDS011;4660;41.768;26.198;2023-08-12T08:14:54;3.83;;;2.72;;
9248;SDS011;4660;41.768;26.198;2023-08-12T08:17:19;3.15;;;2.53;;
9248;SDS011;4660;41.768;26.198;2023-08-12T08:19:45;5.38;;;2.55;;
9248;SDS011;4660;41.768;26.198;2023-08-12T08:22:10;3.25;;;2.95;;
9248;SDS011;4660;41.768;26.198;2023-08-12T08:24:36;3.53;;;2.92;;
9248;SDS011;4660;41.768;26.198;2023-08-12T08:27:02;2.80;;;2.60;;
9248;SDS011;4660;41.768;26.198;2023-08-12T08:29:29;4.18;;;2.55;;
9248;SDS011;4660;41.768;26.198;2023-08-12T08:31:55;5.95;;;3.25;;
9248;SDS011;4660;41.768;26.198;2023-08-12T08:34:21;5.60;;;2.90;;
9248;SDS011;4660;41.768;26.198;2023-08-12T08:36:46;5.43;;;2.72;;
9248;SDS011;4660;41.768;26.198;2023-08-12T08:39:12;4.13;;;2.67;;
9248;SDS011;4660;41.768;26.198;2023-08-12T08:41:38;4.32;;;2.63;;
9248;SDS011;4660;41.768;26.198;2023-08-12T08:44:06;4.00;;;2.70;;
9248;SDS011;4660;41.768;26.198;2023-08-12T08:46:33;3.28;;;2.45;;
9248;SDS011;4660;41.768;26.198;2023-08-12T08:48:59;5.57;;;3.45;;
9248;SDS011;4660;41.768;26.198;2023-08-12T08:51:30;8.20;;;2.42;;
9248;SDS011;4660;41.768;26.198;2023-08-12T08:53:59;4.53;;;2.10;;
9248;SDS011;4660;41.768;26.198;2023-08-12T08:56:37;3.30;;;2.42;;
9248;SDS011;4660;41.768;26.198;2023-08-12T08:59:04;2.70;;;2.50;;
9248;SDS011;4660;41.768;26.198;2023-08-12T09:01:30;5.97;;;2.58;;
9248;SDS011;4660;41.768;26.198;2023-08-12T09:03:56;2.65;;;2.15;;
9248;SDS011;4660;41.768;26.198;2023-08-12T09:06:26;2.25;;;1.90;;
9248;SDS011;4660;41.768;26.198;2023-08-12T09:08:53;3.70;;;2.10;;
9248;SDS011;4660;41.768;26.198;2023-08-12T09:11:19;3.67;;;2.30;;
9248;SDS011;4660;41.768;26.198;2023-08-12T09:13:46;6.28;;;2.72;;
9248;SDS011;4660;41.768;26.198;2023-08-12T09:16:12;3.03;;;2.25;;
9248;SDS011;4660;41.768;26.198;2023-08-12T09:18:40;2.60;;;2.17;;
9248;SDS011;4660;41.768;26.198;2023-08-12T09:21:08;2.70;;;2.50;;
9248;SDS011;4660;41.768;26.198;2023-08-12T09:23:35;7.40;;;2.55;;
9248;SDS011;4660;41.768;26.198;2023-08-12T09:26:14;2.42;;;2.22;;
9248;SDS011;4660;41.768;26.198;2023-08-12T09:28:44;3.75;;;2.78;;
9248;SDS011;4660;41.768;26.198;2023-08-12T09:31:23;3.88;;;2.50;;
9248;SDS011;4660;41.768;26.198;2023-08-12T09:33:51;2.28;;;2.08;;
9248;SDS011;4660;41.768;26.198;2023-08-12T09:36:17;4.43;;;2.30;;
9248;SDS011;4660;41.768;26.198;2023-08-12T09:38:44;6.78;;;2.70;;
9248;SDS011;4660;41.768;26.198;2023-08-12T09:41:11;2.85;;;2.53;;
9248;SDS011;4660;41.768;26.198;2023-08-12T09:43:42;3.88;;;2.50;;
9248;SDS011;4660;41.768;26.198;2023-08-12T09:46:12;2.70;;;2.33;;
9248;SDS011;4660;41.768;26.198;2023-08-12T09:48:41;2.65;;;2.45;;
9248;SDS011;4660;41.768;26.198;2023-08-12T09:51:07;4.53;;;2.35;;
9248;SDS011;4660;41.768;26.198;2023-08-12T09:53:33;4.72;;;2.50;;
9248;SDS011;4660;41.768;26.198;2023-08-12T09:56:01;3.30;;;2.50;;
9248;SDS011;4660;41.768;26.198;2023-08-12T09:58:35;3.05;;;2.30;;
9248;SDS011;4660;41.768;26.198;2023-08-12T10:01:02;4.63;;;2.70;;
9248;SDS011;4660;41.768;26.198;2023-08-12T10:03:33;2.47;;;2.28;;
9248;SDS011;4660;41.768;26.198;2023-08-12T10:06:02;5.65;;;2.15;;
9248;SDS011;4660;41.768;26.198;2023-08-12T10:08:28;3.50;;;2.35;;
9248;SDS011;4660;41.768;26.198;2023-08-12T10:10:54;4.32;;;2.20;;
9248;SDS011;4660;41.768;26.198;2023-08-12T10:13:20;3.65;;;2.53;;
9248;SDS011;4660;41.768;26.198;2023-08-12T10:15:48;4.50;;;2.53;;
9248;SDS011;4660;41.768;26.198;2023-08-12T10:18:18;11.43;;;2.92;;
9248;SDS011;4660;41.768;26.198;2023-08-12T10:20:44;2.88;;;2.35;;
9248;SDS011;4660;41.768;26.198;2023-08-12T10:23:15;5.65;;;2.75;;
9248;SDS011;4660;41.768;26.198;2023-08-12T10:25:43;3.58;;;2.75;;
9248;SDS011;4660;41.768;26.198;2023-08-12T10:28:10;2.72;;;2.40;;
9248;SDS011;4660;41.768;26.198;2023-08-12T10:30:37;5.57;;;2.80;;
9248;SDS011;4660;41.768;26.198;2023-08-12T10:33:05;3.88;;;2.65;;
9248;SDS011;4660;41.768;26.198;2023-08-12T10:35:46;4.55;;;2.30;;
9248;SDS011;4660;41.768;26.198;2023-08-12T10:38:14;2.75;;;2.40;;
9248;SDS011;4660;41.768;26.198;2023-08-12T10:40:42;4.07;;;2.58;;
9248;SDS011;4660;41.768;26.198;2023-08-12T10:43:08;3.20;;;2.67;;
9248;SDS011;4660;41.768;26.198;2023-08-12T10:45:41;2.67;;;2.17;;
9248;SDS011;4660;41.768;26.198;2023-08-12T10:48:21;2.53;;;2.20;;
9248;SDS011;4660;41.768;26.198;2023-08-12T10:50:49;5.53;;;2.30;;
9248;SDS011;4660;41.768;26.198;2023-08-12T10:53:25;3.03;;;2.35;;
9248;SDS011;4660;41.768;26.198;2023-08-12T10:55:56;4.00;;;2.50;;
9248;SDS011;4660;41.768;26.198;2023-08-12T10:58:41;2.97;;;2.55;;
9248;SDS011;4660;41.768;26.198;2023-08-12T11:01:13;2.75;;;2.28;;
9248;SDS011;4660;41.768;26.198;2023-08-12T11:03:43;2.90;;;2.65;;
9248;SDS011;4660;41.768;26.198;2023-08-12T11:06:12;3.55;;;2.20;;
9248;SDS011;4660;41.768;26.198;2023-08-12T11:08:48;4.10;;;2.50;;
9248;SDS011;4660;41.768;26.198;2023-08-12T11:11:23;3.33;;;2.10;;
9248;SDS011;4660;41.768;26.198;2023-08-12T11:13:54;2.67;;;2.47;;
9248;SDS011;4660;41.768;26.198;2023-08-12T11:16:36;5.25;;;2.30;;
9248;SDS011;4660;41.768;26.198;2023-08-12T11:19:03;2.58;;;1.90;;
9248;SDS011;4660;41.768;26.198;2023-08-12T11:21:33;2.67;;;2.30;;
9248;SDS011;4660;41.768;26.198;2023-08-12T11:24:01;6.78;;;2.47;;
9248;SDS011;4660;41.768;26.198;2023-08-12T11:26:27;4.80;;;2.28;;
9248;SDS011;4660;41.768;26.198;2023-08-12T11:28:55;2.60;;;2.38;;
9248;SDS011;4660;41.768;26.198;2023-08-12T11:31:21;3.28;;;2.00;;
9248;SDS011;4660;41.768;26.198;2023-08-12T11:33:48;3.70;;;2.40;;
9248;SDS011;4660;41.768;26.198;2023-08-12T11:36:13;2.45;;;2.25;;
9248;SDS011;4660;41.768;26.198;2023-08-12T11:38:40;2.35;;;2.17;;
9248;SDS011;4660;41.768;26.198;2023-08-12T11:41:07;3.15;;;2.33;;
9248;SDS011;4660;41.768;26.198;2023-08-12T11:43:32;5.90;;;2.45;;
9248;SDS011;4660;41.768;26.198;2023-08-12T11:45:59;3.40;;;2.08;;
9248;SDS011;4660;41.768;26.198;2023-08-12T11:48:24;3.40;;;2.25;;
9248;SDS011;4660;41.768;26.198;2023-08-12T11:50:52;4.07;;;2.55;;
9248;SDS011;4660;41.768;26.198;2023-08-12T11:53:19;4.38;;;2.40;;
9248;SDS011;4660;41.768;26.198;2023-08-12T11:55:45;2.83;;;2.22;;
9248;SDS011;4660;41.768;26.198;2023-08-12T11:58:11;3.53;;;2.10;;
9248;SDS011;4660;41.768;26.198;2023-08-12T12:00:44;2.85;;;2.33;;
9248;SDS011;4660;41.768;26.198;2023-08-12T12:03:11;2.97;;;2.00;;
9248;SDS011;4660;41.768;26.198;2023-08-12T12:05:37;3.60;;;2.20;;
9248;SDS011;4660;41.768;26.198;2023-08-12T12:08:04;2.58;;;2.38;;
9248;SDS011;4660;41.768;26.198;2023-08-12T12:10:32;4.22;;;2.38;;
9248;SDS011;4660;41.768;26.198;2023-08-12T12:12:59;5.40;;;1.92;;
9248;SDS011;4660;41.768;26.198;2023-08-12T12:15:25;2.42;;;2.22;;
9248;SDS011;4660;41.768;26.198;2023-08-12T12:17:51;2.63;;;2.13;;
9248;SDS011;4660;41.768;26.198;2023-08-12T12:20:17;2.40;;;2.05;;
9248;SDS011;4660;41.768;26.198;2023-08-12T12:22:44;3.05;;;2.67;;
9248;SDS011;4660;41.768;26.198;2023-08-12T12:25:14;4.68;;;2.75;;
9248;SDS011;4660;41.768;26.198;2023-08-12T12:27:44;4.15;;;2.78;;
9248;SDS011;4660;41.768;26.198;2023-08-12T12:30:12;2.97;;;2.35;;
9248;SDS011;4660;41.768;26.198;2023-08-12T12:32:38;8.80;;;2.53;;
9248;SDS011;4660;41.768;26.198;2023-08-12T12:35:04;3.92;;;2.72;;
9248;SDS011;4660;41.768;26.198;2023-08-12T12:37:32;3.78;;;3.47;;
9248;SDS011;4660;41.768;26.198;2023-08-12T12:39:58;3.80;;;2.30;;
9248;SDS011;4660;41.768;26.198;2023-08-12T12:42:24;3.22;;;2.50;;
9248;SDS011;4660;41.768;26.198;2023-08-12T12:44:49;2.90;;;2.70;;
9248;SDS011;4660;41.768;26.198;2023-08-12T12:47:15;2.70;;;2.45;;
9248;SDS011;4660;41.768;26.198;2023-08-12T12:49:41;12.35;;;2.72;;
9248;SDS011;4660;41.768;26.198;2023-08-12T12:52:07;6.25;;;2.42;;
9248;SDS011;4660;41.768;26.198;2023-08-12T12:54:32;3.55;;;2.58;;
9248;SDS011;4660;41.768;26.198;2023-08-12T12:56:58;4.60;;;2.45;;
9248;SDS011;4660;41.768;26.198;2023-08-12T12:59:23;5.22;;;2.80;;
9248;SDS011;4660;41.768;26.198;2023-08-12T13:01:49;3.05;;;2.75;;
9248;SDS011;4660;41.768;26.198;2023-08-12T13:04:14;4.78;;;2.35;;
9248;SDS011;4660;41.768;26.198;2023-08-12T13:06:40;2.58;;;2.20;;
9248;SDS011;4660;41.768;26.198;2023-08-12T13:09:06;3.78;;;2.30;;
9248;SDS011;4660;41.768;26.198;2023-08-12T13:11:32;3.20;;;2.42;;
9248;SDS011;4660;41.768;26.198;2023-08-12T13:13:59;5.50;;;2.42;;
9248;SDS011;4660;41.768;26.198;2023-08-12T13:16:25;2.25;;;2.05;;
9248;SDS011;4660;41.768;26.198;2023-08-12T13:18:51;2.75;;;2.55;;
9248;SDS011;4660;41.768;26.198;2023-08-12T13:21:16;2.45;;;2.25;;
9248;SDS011;4660;41.768;26.198;2023-08-12T13:23:42;5.05;;;2.70;;
9248;SDS011;4660;41.768;26.198;2023-08-12T13:26:07;6.75;;;2.90;;
9248;SDS011;4660;41.768;26.198;2023-08-12T13:28:32;2.95;;;2.53;;
9248;SDS011;4660;41.768;26.198;2023-08-12T13:30:59;5.43;;;2.47;;
9248;SDS011;4660;41.768;26.198;2023-08-12T13:33:24;3.67;;;2.55;;
9248;SDS011;4660;41.768;26.198;2023-08-12T13:35:50;2.97;;;2.53;;
9248;SDS011;4660;41.768;26.198;2023-08-12T13:38:15;4.13;;;2.30;;
9248;SDS011;4660;41.768;26.198;2023-08-12T13:40:42;3.00;;;2.70;;
9248;SDS011;4660;41.768;26.198;2023-08-12T13:43:07;3.85;;;2.40;;
9248;SDS011;4660;41.768;26.198;2023-08-12T13:45:33;5.05;;;2.42;;
9248;SDS011;4660;41.768;26.198;2023-08-12T13:47:59;4.25;;;2.55;;
9248;SDS011;4660;41.768;26.198;2023-08-12T13:50:25;3.15;;;2.20;;
9248;SDS011;4660;41.768;26.198;2023-08-12T13:52:51;2.40;;;2.20;;
9248;SDS011;4660;41.768;26.198;2023-08-12T13:55:17;8.10;;;2.75;;
9248;SDS011;4660;41.768;26.198;2023-08-12T13:57:43;2.40;;;2.20;;
9248;SDS011;4660;41.768;26.198;2023-08-12T14:00:08;2.60;;;2.40;;
9248;SDS011;4660;41.768;26.198;2023-08-12T14:02:38;4.15;;;2.78;;
9248;SDS011;4660;41.768;26.198;2023-08-12T14:05:04;4.88;;;2.20;;
9248;SDS011;4660;41.768;26.198;2023-08-12T14:07:30;2.70;;;2.50;;
9248;SDS011;4660;41.768;26.198;2023-08-12T14:09:56;2.60;;;2.40;;
9248;SDS011;4660;41.768;26.198;2023-08-12T14:12:21;2.58;;;2.30;;
9248;SDS011;4660;41.768;26.198;2023-08-12T14:14:47;2.67;;;2.22;;
9248;SDS011;4660;41.768;26.198;2023-08-12T14:17:13;3.72;;;2.33;;
9248;SDS011;4660;41.768;26.198;2023-08-12T14:19:41;2.83;;;2.42;;
9248;SDS011;4660;41.768;26.198;2023-08-12T14:22:08;2.90;;;2.55;;
9248;SDS011;4660;41.768;26.198;2023-08-12T14:24:33;2.83;;;2.50;;
9248;SDS011;4660;41.768;26.198;2023-08-12T14:26:59;2.50;;;2.30;;
9248;SDS011;4660;41.768;26.198;2023-08-12T14:29:24;2.60;;;2.40;;
9248;SDS011;4660;41.768;26.198;2023-08-12T14:31:50;4.70;;;2.38;;
9248;SDS011;4660;41.768;26.198;2023-08-12T14:34:17;2.70;;;2.47;;
9248;SDS011;4660;41.768;26.198;2023-08-12T14:36:42;2.63;;;2.35;;
9248;SDS011;4660;41.768;26.198;2023-08-12T14:39:08;4.57;;;2.65;;
9248;SDS011;4660;41.768;26.198;2023-08-12T14:41:33;2.63;;;2.42;;
9248;SDS011;4660;41.768;26.198;2023-08-12T14:43:59;8.13;;;2.92;;
9248;SDS011;4660;41.768;26.198;2023-08-12T14:46:24;5.47;;;2.58;;
9248;SDS011;4660;41.768;26.198;2023-08-12T14:48:50;5.22;;;2.50;;
9248;SDS011;4660;41.768;26.198;2023-08-12T14:51:18;3.80;;;2.33;;
9248;SDS011;4660;41.768;26.198;2023-08-12T14:53:44;2.72;;;2.25;;
9248;SDS011;4660;41.768;26.198;2023-08-12T14:56:10;2.95;;;2.35;;
9248;SDS011;4660;41.768;26.198;2023-08-12T14:58:35;3.63;;;2.50;;
9248;SDS011;4660;41.768;26.198;2023-08-12T15:01:01;4.47;;;2.20;;